sensor_id;sensor_type;location;lat;lon;timestamp;pressure;altitude;pressure_sealevel;temperature;humidity
13553;BME280;6847;48.830;9.116;2023-01-16T00:01:46;96723.13;;;6.13;60.44
13553;BME280;6847;48.830;9.116;2023-01-16T00:04:14;96719.53;;;6.28;60.61
13553;BME280;6847;48.830;9.116;2023-01-16T00:06:47;96740.03;;;6.58;60.42
13553;BME280;6847;48.830;9.116;2023-01-16T00:09:17;96730.88;;;6.64;60.03
13553;BME280;6847;48.830;9.116;2023-01-16T00:11:48;96690.16;;;6.37;59.81
13553;BME280;6847;48.830;9.116;2023-01-16T00:14:17;96743.16;;;6.75;60.21
13553;BME280;6847;48.830;9.116;2023-01-16T00:16:44;96730.72;;;6.79;59.93
13553;BME280;6847;48.830;9.116;2023-01-16T00:19:15;96733.69;;;6.83;59.95
13553;BME280;6847;48.830;9.116;2023-01-16T00:21:44;96728.81;;;6.85;60.26
13553;BME280;6847;48.830;9.116;2023-01-16T00:24:13;96726.13;;;6.85;59.81
13553;BME280;6847;48.830;9.116;2023-01-16T00:26:40;96718.34;;;6.83;59.97
13553;BME280;6847;48.830;9.116;2023-01-16T00:29:10;96712.44;;;6.81;60.36
13553;BME280;6847;48.830;9.116;2023-01-16T00:31:36;96380.84;;;4.73;60.01
13553;BME280;6847;48.830;9.116;2023-01-16T00:34:03;96537.66;;;5.79;60.21
13553;BME280;6847;48.830;9.116;2023-01-16T00:36:31;96476.94;;;5.49;59.92
13553;BME280;6847;48.830;9.116;2023-01-16T00:38:57;96487.59;;;5.65;59.82
13553;BME280;6847;48.830;9.116;2023-01-16T00:41:24;96611.06;;;6.48;60.24
13553;BME280;6847;48.830;9.116;2023-01-16T00:43:51;96672.19;;;7.00;60.01
13553;BME280;6847;48.830;9.116;2023-01-16T00:46:18;96654.31;;;6.85;59.60
13553;BME280;6847;48.830;9.116;2023-01-16T00:48:45;96664.16;;;6.95;59.93
13553;BME280;6847;48.830;9.116;2023-01-16T00:51:11;96662.31;;;6.90;60.10
13553;BME280;6847;48.830;9.116;2023-01-16T00:53:38;96651.91;;;6.84;60.15
13553;BME280;6847;48.830;9.116;2023-01-16T00:56:06;96657.84;;;6.81;59.71
13553;BME280;6847;48.830;9.116;2023-01-16T00:58:32;96654.41;;;6.75;59.69
13553;BME280;6847;48.830;9.116;2023-01-16T01:01:00;96650.66;;;6.71;60.20
13553;BME280;6847;48.830;9.116;2023-01-16T01:03:29;96659.56;;;6.66;59.96
13553;BME280;6847;48.830;9.116;2023-01-16T01:05:56;96607.38;;;6.39;59.74
13553;BME280;6847;48.830;9.116;2023-01-16T01:08:23;96635.44;;;6.56;59.98
13553;BME280;6847;48.830;9.116;2023-01-16T01:10:50;96637.63;;;6.54;59.62
13553;BME280;6847;48.830;9.116;2023-01-16T01:13:18;96638.19;;;6.51;59.68
13553;BME280;6847;48.830;9.116;2023-01-16T01:15:44;96625.03;;;6.50;59.60
13553;BME280;6847;48.830;9.116;2023-01-16T01:18:11;96625.28;;;6.48;59.55
13553;BME280;6847;48.830;9.116;2023-01-16T01:20:39;96616.44;;;6.48;59.67
13553;BME280;6847;48.830;9.116;2023-01-16T01:23:05;96616.44;;;6.48;59.52
13553;BME280;6847;48.830;9.116;2023-01-16T01:25:32;96617.00;;;6.45;59.78
13553;BME280;6847;48.830;9.116;2023-01-16T01:28:01;96629.94;;;6.43;59.90
13553;BME280;6847;48.830;9.116;2023-01-16T01:30:28;96612.19;;;6.42;60.03
13553;BME280;6847;48.830;9.116;2023-01-16T01:32:55;96591.56;;;6.32;59.89
13553;BME280;6847;48.830;9.116;2023-01-16T01:35:42;96597.94;;;6.41;59.52
13553;BME280;6847;48.830;9.116;2023-01-16T01:38:17;96591.25;;;6.39;59.65
13553;BME280;6847;48.830;9.116;2023-01-16T01:40:51;96572.56;;;6.23;59.74
13553;BME280;6847;48.830;9.116;2023-01-16T01:43:37;96436.25;;;5.37;59.86
13553;BME280;6847;48.830;9.116;2023-01-16T01:46:07;96588.09;;;6.31;60.17
13553;BME280;6847;48.830;9.116;2023-01-16T01:48:40;96589.72;;;6.27;59.88
13553;BME280;6847;48.830;9.116;2023-01-16T01:51:12;96580.06;;;6.26;59.98
13553;BME280;6847;48.830;9.116;2023-01-16T01:53:46;96572.00;;;6.26;59.78
13553;BME280;6847;48.830;9.116;2023-01-16T01:56:17;96555.09;;;6.26;59.68
13553;BME280;6847;48.830;9.116;2023-01-16T01:58:48;96554.28;;;6.25;59.93
13553;BME280;6847;48.830;9.116;2023-01-16T02:01:33;96475.09;;;5.79;59.42
13553;BME280;6847;48.830;9.116;2023-01-16T02:04:09;96527.72;;;6.19;59.59
13553;BME280;6847;48.830;9.116;2023-01-16T02:06:43;96487.56;;;6.04;59.40
13553;BME280;6847;48.830;9.116;2023-01-16T02:09:10;96518.25;;;6.26;59.76
13553;BME280;6847;48.830;9.116;2023-01-16T02:11:46;96512.91;;;6.26;59.40
13553;BME280;6847;48.830;9.116;2023-01-16T02:14:16;96502.16;;;6.26;59.25
13553;BME280;6847;48.830;9.116;2023-01-16T02:16:42;96489.78;;;6.25;59.28
13553;BME280;6847;48.830;9.116;2023-01-16T02:19:33;96374.91;;;5.54;59.58
13553;BME280;6847;48.830;9.116;2023-01-16T02:22:33;96469.91;;;6.26;59.33
13553;BME280;6847;48.830;9.116;2023-01-16T02:25:43;96459.91;;;6.27;59.10
13553;BME280;6847;48.830;9.116;2023-01-16T02:28:52;96213.34;;;4.71;59.02
13553;BME280;6847;48.830;9.116;2023-01-16T02:31:31;96446.78;;;6.25;59.44
13553;BME280;6847;48.830;9.116;2023-01-16T02:34:19;96437.66;;;6.26;59.49
13553;BME280;6847;48.830;9.116;2023-01-16T02:36:53;96421.63;;;6.16;59.39
13553;BME280;6847;48.830;9.116;2023-01-16T02:39:32;96434.16;;;6.26;59.20
13553;BME280;6847;48.830;9.116;2023-01-16T02:42:10;96324.91;;;5.64;59.39
13553;BME280;6847;48.830;9.116;2023-01-16T02:44:45;96413.47;;;6.26;59.48
13553;BME280;6847;48.830;9.116;2023-01-16T02:47:24;96403.19;;;6.28;59.42
13553;BME280;6847;48.830;9.116;2023-01-16T02:49:57;96401.59;;;6.27;59.57
13553;BME280;6847;48.830;9.116;2023-01-16T02:52:35;96364.19;;;6.07;59.23
13553;BME280;6847;48.830;9.116;2023-01-16T02:55:10;96365.22;;;6.16;59.28
13553;BME280;6847;48.830;9.116;2023-01-16T02:57:42;96368.56;;;6.27;59.26
13553;BME280;6847;48.830;9.116;2023-01-16T03:00:15;96355.13;;;6.27;59.43
13553;BME280;6847;48.830;9.116;2023-01-16T03:02:49;96303.66;;;5.96;59.06
13553;BME280;6847;48.830;9.116;2023-01-16T03:05:18;96324.44;;;6.09;58.91
13553;BME280;6847;48.830;9.116;2023-01-16T03:08:05;96344.09;;;6.28;59.48
13553;BME280;6847;48.830;9.116;2023-01-16T03:10:51;96349.47;;;6.28;59.39
13553;BME280;6847;48.830;9.116;2023-01-16T03:13:32;96330.94;;;6.27;59.48
13553;BME280;6847;48.830;9.116;2023-01-16T03:16:10;96316.13;;;6.29;59.28
13553;BME280;6847;48.830;9.116;2023-01-16T03:18:53;96319.03;;;6.33;59.39
13553;BME280;6847;48.830;9.116;2023-01-16T03:21:36;96319.47;;;6.40;58.97
13553;BME280;6847;48.830;9.116;2023-01-16T03:24:13;96190.03;;;5.72;59.34
13553;BME280;6847;48.830;9.116;2023-01-16T03:26:49;96298.22;;;6.44;59.24
13553;BME280;6847;48.830;9.116;2023-01-16T03:29:24;96298.78;;;6.41;59.31
13553;BME280;6847;48.830;9.116;2023-01-16T03:32:03;96299.59;;;6.41;59.32
13553;BME280;6847;48.830;9.116;2023-01-16T03:34:39;96298.78;;;6.41;58.98
13553;BME280;6847;48.830;9.116;2023-01-16T03:37:13;96175.09;;;5.66;59.37
13553;BME280;6847;48.830;9.116;2023-01-16T03:39:48;96273.56;;;6.37;59.01
13553;BME280;6847;48.830;9.116;2023-01-16T03:42:20;96275.47;;;6.36;59.53
13553;BME280;6847;48.830;9.116;2023-01-16T03:44:53;96260.72;;;6.34;59.31
13553;BME280;6847;48.830;9.116;2023-01-16T03:47:27;96253.75;;;6.32;58.94
13553;BME280;6847;48.830;9.116;2023-01-16T03:49:59;96249.75;;;6.30;59.00
13553;BME280;6847;48.830;9.116;2023-01-16T03:52:32;96243.56;;;6.29;58.99
13553;BME280;6847;48.830;9.116;2023-01-16T03:55:05;96235.00;;;6.27;59.03
13553;BME280;6847;48.830;9.116;2023-01-16T03:57:36;96221.28;;;6.29;58.88
13553;BME280;6847;48.830;9.116;2023-01-16T04:00:06;96225.41;;;6.21;59.03
13553;BME280;6847;48.830;9.116;2023-01-16T04:02:40;96219.81;;;6.18;59.34
13553;BME280;6847;48.830;9.116;2023-01-16T04:05:14;96207.78;;;6.15;59.01
13553;BME280;6847;48.830;9.116;2023-01-16T04:07:44;96170.50;;;5.90;58.85
13553;BME280;6847;48.830;9.116;2023-01-16T04:10:17;96187.94;;;6.11;58.76
13553;BME280;6847;48.830;9.116;2023-01-16T04:12:49;96145.00;;;5.87;59.23
13553;BME280;6847;48.830;9.116;2023-01-16T04:15:18;96158.00;;;5.99;58.74
13553;BME280;6847;48.830;9.116;2023-01-16T04:17:45;96166.03;;;6.04;58.83
13553;BME280;6847;48.830;9.116;2023-01-16T04:20:14;96153.69;;;6.03;59.24
13553;BME280;6847;48.830;9.116;2023-01-16T04:25:46;96135.53;;;5.95;58.77
13553;BME280;6847;48.830;9.116;2023-01-16T04:28:12;96131.53;;;5.92;58.81
13553;BME280;6847;48.830;9.116;2023-01-16T04:30:39;96127.53;;;5.90;58.93
13553;BME280;6847;48.830;9.116;2023-01-16T04:33:05;96118.97;;;5.88;59.18
13553;BME280;6847;48.830;9.116;2023-01-16T04:35:33;96110.09;;;5.87;59.41
13553;BME280;6847;48.830;9.116;2023-01-16T04:38:03;96102.84;;;5.88;58.75
13553;BME280;6847;48.830;9.116;2023-01-16T04:40:30;96096.97;;;5.86;59.25
13553;BME280;6847;48.830;9.116;2023-01-16T04:42:56;96068.44;;;5.71;58.78
13553;BME280;6847;48.830;9.116;2023-01-16T04:45:23;95957.47;;;5.06;59.11
13553;BME280;6847;48.830;9.116;2023-01-16T04:47:50;96019.31;;;5.52;59.09
13553;BME280;6847;48.830;9.116;2023-01-16T04:50:18;96063.19;;;5.80;59.29
13553;BME280;6847;48.830;9.116;2023-01-16T04:52:49;96058.44;;;5.77;58.74
13553;BME280;6847;48.830;9.116;2023-01-16T04:55:16;96048.25;;;5.74;58.51
13553;BME280;6847;48.830;9.116;2023-01-16T04:57:42;96041.38;;;5.68;59.10
13553;BME280;6847;48.830;9.116;2023-01-16T05:00:12;96032.31;;;5.64;58.49
13553;BME280;6847;48.830;9.116;2023-01-16T05:02:39;96022.75;;;5.57;58.42
13553;BME280;6847;48.830;9.116;2023-01-16T05:05:11;95994.50;;;5.41;58.43
13553;BME280;6847;48.830;9.116;2023-01-16T05:07:38;96015.91;;;5.46;58.87
13553;BME280;6847;48.830;9.116;2023-01-16T05:10:08;95947.72;;;5.10;58.77
13553;BME280;6847;48.830;9.116;2023-01-16T05:12:35;96005.47;;;5.45;59.24
13553;BME280;6847;48.830;9.116;2023-01-16T05:15:06;95994.75;;;5.45;59.03
13553;BME280;6847;48.830;9.116;2023-01-16T05:17:33;95978.94;;;5.43;59.07
13553;BME280;6847;48.830;9.116;2023-01-16T05:20:00;95977.31;;;5.42;58.46
13553;BME280;6847;48.830;9.116;2023-01-16T05:22:27;95973.03;;;5.41;58.82
13553;BME280;6847;48.830;9.116;2023-01-16T05:24:54;95959.06;;;5.44;59.62
13553;BME280;6847;48.830;9.116;2023-01-16T05:27:22;95954.78;;;5.43;58.79
13553;BME280;6847;48.830;9.116;2023-01-16T05:29:49;95933.97;;;5.35;59.20
13553;BME280;6847;48.830;9.116;2023-01-16T05:32:16;95944.13;;;5.38;58.89
13553;BME280;6847;48.830;9.116;2023-01-16T05:34:42;95943.53;;;5.41;59.02
13553;BME280;6847;48.830;9.116;2023-01-16T05:37:09;95926.84;;;5.44;59.49
13553;BME280;6847;48.830;9.116;2023-01-16T05:39:36;95925.69;;;5.50;58.88
13553;BME280;6847;48.830;9.116;2023-01-16T05:42:06;95917.03;;;5.53;59.46
13553;BME280;6847;48.830;9.116;2023-01-16T05:44:47;95891.28;;;5.52;58.88
13553;BME280;6847;48.830;9.116;2023-01-16T05:47:14;95894.28;;;5.51;58.38
13553;BME280;6847;48.830;9.116;2023-01-16T05:49:41;95886.03;;;5.47;58.59
13553;BME280;6847;48.830;9.116;2023-01-16T05:52:09;95871.59;;;5.43;59.27
13553;BME280;6847;48.830;9.116;2023-01-16T05:55:09;95434.81;;;2.60;58.66
13553;BME280;6847;48.830;9.116;2023-01-16T05:57:36;95849.78;;;5.31;59.31
13553;BME280;6847;48.830;9.116;2023-01-16T06:00:09;95820.03;;;5.14;59.09
13553;BME280;6847;48.830;9.116;2023-01-16T06:02:36;95734.41;;;4.53;59.08
13553;BME280;6847;48.830;9.116;2023-01-16T06:05:03;95814.66;;;5.14;59.48
13553;BME280;6847;48.830;9.116;2023-01-16T06:07:30;95826.41;;;5.18;59.34
13553;BME280;6847;48.830;9.116;2023-01-16T06:09:59;95774.47;;;4.95;59.48
13553;BME280;6847;48.830;9.116;2023-01-16T06:12:26;95805.44;;;5.20;58.81
13553;BME280;6847;48.830;9.116;2023-01-16T06:14:52;95800.56;;;5.22;58.96
13553;BME280;6847;48.830;9.116;2023-01-16T06:17:20;95788.75;;;5.23;58.89
13553;BME280;6847;48.830;9.116;2023-01-16T06:19:47;95655.50;;;4.45;59.34
13553;BME280;6847;48.830;9.116;2023-01-16T06:22:13;95755.75;;;5.09;58.72
13553;BME280;6847;48.830;9.116;2023-01-16T06:24:40;95763.66;;;5.33;58.97
13553;BME280;6847;48.830;9.116;2023-01-16T06:27:07;95761.97;;;5.37;58.65
13553;BME280;6847;48.830;9.116;2023-01-16T06:29:33;95657.09;;;4.78;59.15
13553;BME280;6847;48.830;9.116;2023-01-16T06:32:03;95742.78;;;5.43;58.73
13553;BME280;6847;48.830;9.116;2023-01-16T06:34:33;95637.81;;;4.76;59.05
13553;BME280;6847;48.830;9.116;2023-01-16T06:37:00;95732.47;;;5.50;59.16
13553;BME280;6847;48.830;9.116;2023-01-16T06:39:27;95730.19;;;5.57;59.17
13553;BME280;6847;48.830;9.116;2023-01-16T06:41:53;95721.53;;;5.61;59.31
13553;BME280;6847;48.830;9.116;2023-01-16T06:44:26;95719.34;;;5.63;58.56
13553;BME280;6847;48.830;9.116;2023-01-16T06:46:55;95708.63;;;5.63;59.44
13553;BME280;6847;48.830;9.116;2023-01-16T06:49:22;95635.66;;;5.19;59.27
13553;BME280;6847;48.830;9.116;2023-01-16T06:55:04;95699.47;;;5.64;58.86
13553;BME280;6847;48.830;9.116;2023-01-16T06:57:40;95410.50;;;3.83;58.71
13553;BME280;6847;48.830;9.116;2023-01-16T07:00:39;95692.50;;;5.63;59.19
13553;BME280;6847;48.830;9.116;2023-01-16T07:07:17;95494.25;;;4.43;58.67
13553;BME280;6847;48.830;9.116;2023-01-16T07:16:55;95517.22;;;4.76;59.08
13553;BME280;6847;48.830;9.116;2023-01-16T07:19:42;95650.94;;;5.74;58.81
13553;BME280;6847;48.830;9.116;2023-01-16T07:22:31;95501.63;;;4.78;58.92
13553;BME280;6847;48.830;9.116;2023-01-16T07:42:13;95622.38;;;6.27;57.94
13553;BME280;6847;48.830;9.116;2023-01-16T07:45:31;95612.91;;;6.30;58.25
13553;BME280;6847;48.830;9.116;2023-01-16T07:48:05;95611.81;;;6.31;58.62
13553;BME280;6847;48.830;9.116;2023-01-16T07:50:35;95158.44;;;3.45;58.46
13553;BME280;6847;48.830;9.116;2023-01-16T07:53:02;95450.09;;;5.53;58.12
13553;BME280;6847;48.830;9.116;2023-01-16T07:55:30;95483.47;;;5.97;58.17
13553;BME280;6847;48.830;9.116;2023-01-16T07:58:22;95522.06;;;6.63;57.26
13553;BME280;6847;48.830;9.116;2023-01-16T08:01:06;95573.47;;;7.10;57.30
13553;BME280;6847;48.830;9.116;2023-01-16T08:03:33;95539.41;;;6.96;57.08
13553;BME280;6847;48.830;9.116;2023-01-16T08:06:22;95566.50;;;7.09;57.21
13553;BME280;6847;48.830;9.116;2023-01-16T08:08:52;95541.75;;;6.89;57.84
13553;BME280;6847;48.830;9.116;2023-01-16T08:12:03;95524.00;;;6.80;58.04
13553;BME280;6847;48.830;9.116;2023-01-16T08:14:33;95546.88;;;6.99;57.66
13553;BME280;6847;48.830;9.116;2023-01-16T08:17:00;95336.66;;;5.62;57.69
13553;BME280;6847;48.830;9.116;2023-01-16T08:19:31;95414.66;;;6.18;57.64
13553;BME280;6847;48.830;9.116;2023-01-16T08:21:58;95361.75;;;5.88;57.40
13553;BME280;6847;48.830;9.116;2023-01-16T08:24:39;95425.22;;;6.46;57.79
13553;BME280;6847;48.830;9.116;2023-01-16T08:27:10;95520.81;;;7.17;57.97
13553;BME280;6847;48.830;9.116;2023-01-16T08:29:37;95511.16;;;7.25;57.67
13553;BME280;6847;48.830;9.116;2023-01-16T08:32:05;95377.47;;;6.43;57.53
13553;BME280;6847;48.830;9.116;2023-01-16T08:34:32;95471.75;;;7.12;57.67
13553;BME280;6847;48.830;9.116;2023-01-16T08:36:59;95403.00;;;6.71;57.54
13553;BME280;6847;48.830;9.116;2023-01-16T08:39:28;95416.75;;;6.69;57.91
13553;BME280;6847;48.830;9.116;2023-01-16T08:41:54;95430.69;;;6.80;58.00
13553;BME280;6847;48.830;9.116;2023-01-16T08:44:40;95454.94;;;6.97;57.47
13553;BME280;6847;48.830;9.116;2023-01-16T08:47:25;95478.72;;;7.13;57.92
13553;BME280;6847;48.830;9.116;2023-01-16T08:50:12;95480.63;;;7.21;57.96
13553;BME280;6847;48.830;9.116;2023-01-16T08:53:02;95429.28;;;6.91;58.30
13553;BME280;6847;48.830;9.116;2023-01-16T08:55:29;95464.16;;;7.14;57.96
13553;BME280;6847;48.830;9.116;2023-01-16T08:57:56;95343.31;;;6.35;57.78
13553;BME280;6847;48.830;9.116;2023-01-16T09:00:38;95395.91;;;6.75;58.05
13553;BME280;6847;48.830;9.116;2023-01-16T09:03:09;95482.38;;;7.34;57.88
13553;BME280;6847;48.830;9.116;2023-01-16T09:05:37;95445.78;;;7.07;57.35
13553;BME280;6847;48.830;9.116;2023-01-16T09:08:04;95449.13;;;7.13;57.38
13553;BME280;6847;48.830;9.116;2023-01-16T09:10:31;95333.06;;;6.45;57.70
13553;BME280;6847;48.830;9.116;2023-01-16T09:12:59;95378.63;;;6.76;57.33
13553;BME280;6847;48.830;9.116;2023-01-16T09:15:45;95477.94;;;7.38;57.23
13553;BME280;6847;48.830;9.116;2023-01-16T09:18:12;95403.50;;;6.90;57.23
13553;BME280;6847;48.830;9.116;2023-01-16T09:20:39;95523.41;;;7.65;57.10
13553;BME280;6847;48.830;9.116;2023-01-16T09:23:07;95473.03;;;7.31;57.16
13553;BME280;6847;48.830;9.116;2023-01-16T09:25:34;95517.88;;;7.70;57.17
13553;BME280;6847;48.830;9.116;2023-01-16T09:28:05;95458.31;;;7.46;56.93
13553;BME280;6847;48.830;9.116;2023-01-16T09:30:32;95496.47;;;7.74;57.10
13553;BME280;6847;48.830;9.116;2023-01-16T09:33:04;95265.09;;;6.36;56.87
13553;BME280;6847;48.830;9.116;2023-01-16T09:35:35;95423.63;;;7.44;56.77
13553;BME280;6847;48.830;9.116;2023-01-16T09:38:11;95291.19;;;6.70;56.64
13553;BME280;6847;48.830;9.116;2023-01-16T09:40:43;95465.75;;;7.92;56.36
13553;BME280;6847;48.830;9.116;2023-01-16T09:43:27;95256.09;;;6.75;56.25
13553;BME280;6847;48.830;9.116;2023-01-16T09:46:09;95402.88;;;7.79;56.19
13553;BME280;6847;48.830;9.116;2023-01-16T09:48:49;95440.50;;;8.14;55.56
13553;BME280;6847;48.830;9.116;2023-01-16T09:51:22;95326.72;;;7.44;55.68
13553;BME280;6847;48.830;9.116;2023-01-16T09:54:09;95365.78;;;7.76;56.02
13553;BME280;6847;48.830;9.116;2023-01-16T09:57:00;95316.75;;;7.45;55.84
13553;BME280;6847;48.830;9.116;2023-01-16T09:59:47;95311.06;;;7.38;55.70
13553;BME280;6847;48.830;9.116;2023-01-16T10:02:28;95324.19;;;7.57;55.33
13553;BME280;6847;48.830;9.116;2023-01-16T10:05:00;95396.16;;;8.03;55.21
13553;BME280;6847;48.830;9.116;2023-01-16T10:07:45;95176.41;;;6.62;55.22
13553;BME280;6847;48.830;9.116;2023-01-16T10:10:34;95411.59;;;8.23;55.19
13553;BME280;6847;48.830;9.116;2023-01-16T10:13:11;95319.25;;;7.67;55.23
13553;BME280;6847;48.830;9.116;2023-01-16T10:15:48;95362.25;;;8.02;54.93
13553;BME280;6847;48.830;9.116;2023-01-16T10:18:26;95248.25;;;7.34;54.99
13553;BME280;6847;48.830;9.116;2023-01-16T10:21:22;95379.25;;;8.23;54.92
13553;BME280;6847;48.830;9.116;2023-01-16T10:23:53;95348.59;;;8.07;54.56
13553;BME280;6847;48.830;9.116;2023-01-16T10:26:28;95282.50;;;7.71;54.56
13553;BME280;6847;48.830;9.116;2023-01-16T10:29:05;95367.03;;;8.34;54.05
13553;BME280;6847;48.830;9.116;2023-01-16T10:31:42;95196.81;;;7.27;53.54
13553;BME280;6847;48.830;9.116;2023-01-16T10:34:17;95351.34;;;8.36;53.76
13553;BME280;6847;48.830;9.116;2023-01-16T10:36:53;95332.69;;;8.31;53.30
13553;BME280;6847;48.830;9.116;2023-01-16T10:39:26;95189.16;;;7.46;53.25
13553;BME280;6847;48.830;9.116;2023-01-16T10:42:00;95332.44;;;8.45;52.80
13553;BME280;6847;48.830;9.116;2023-01-16T10:45:00;95236.44;;;7.94;52.70
13553;BME280;6847;48.830;9.116;2023-01-16T10:47:54;95207.69;;;7.77;52.68
13553;BME280;6847;48.830;9.116;2023-01-16T10:50:41;95319.44;;;8.68;52.42
13553;BME280;6847;48.830;9.116;2023-01-16T10:53:13;95275.97;;;8.48;51.93
13553;BME280;6847;48.830;9.116;2023-01-16T10:55:44;95318.22;;;8.86;52.08
13553;BME280;6847;48.830;9.116;2023-01-16T10:58:28;95170.03;;;7.98;52.15
13553;BME280;6847;48.830;9.116;2023-01-16T11:00:58;95276.38;;;8.80;51.95
13553;BME280;6847;48.830;9.116;2023-01-16T11:03:33;95312.50;;;9.08;52.06
13553;BME280;6847;48.830;9.116;2023-01-16T11:06:08;95135.59;;;8.03;51.75
13553;BME280;6847;48.830;9.116;2023-01-16T11:08:40;95301.94;;;9.15;52.00
13553;BME280;6847;48.830;9.116;2023-01-16T11:11:09;95276.28;;;9.09;51.65
13553;BME280;6847;48.830;9.116;2023-01-16T11:13:58;95034.72;;;7.59;51.60
13553;BME280;6847;48.830;9.116;2023-01-16T11:16:43;95200.63;;;8.85;51.87
13553;BME280;6847;48.830;9.116;2023-01-16T11:19:27;95209.91;;;8.96;51.55
13553;BME280;6847;48.830;9.116;2023-01-16T11:21:58;95275.06;;;9.40;51.81
13553;BME280;6847;48.830;9.116;2023-01-16T11:24:31;95148.91;;;8.71;52.00
13553;BME280;6847;48.830;9.116;2023-01-16T11:27:00;95194.31;;;9.14;51.61
13553;BME280;6847;48.830;9.116;2023-01-16T11:29:36;95130.28;;;8.90;51.87
13553;BME280;6847;48.830;9.116;2023-01-16T11:32:09;95101.75;;;8.89;51.53
13553;BME280;6847;48.830;9.116;2023-01-16T11:34:45;95041.00;;;8.59;51.16
13553;BME280;6847;48.830;9.116;2023-01-16T11:37:51;95122.00;;;9.07;51.74
13553;BME280;6847;48.830;9.116;2023-01-16T11:41:00;95208.25;;;9.73;51.63
13553;BME280;6847;48.830;9.116;2023-01-16T11:43:30;95106.03;;;9.14;51.89
13553;BME280;6847;48.830;9.116;2023-01-16T11:48:59;95006.50;;;8.64;51.60
13553;BME280;6847;48.830;9.116;2023-01-16T11:51:30;94991.78;;;8.62;52.18
13553;BME280;6847;48.830;9.116;2023-01-16T11:53:59;94967.72;;;8.57;51.86
13553;BME280;6847;48.830;9.116;2023-01-16T11:59:41;95142.19;;;9.83;51.62
13553;BME280;6847;48.830;9.116;2023-01-16T12:02:20;95044.44;;;9.16;51.77
13553;BME280;6847;48.830;9.116;2023-01-16T12:05:04;95059.06;;;9.40;52.17
13553;BME280;6847;48.830;9.116;2023-01-16T12:08:01;95107.19;;;9.74;51.74
13553;BME280;6847;48.830;9.116;2023-01-16T12:10:40;95002.63;;;9.10;51.96
13553;BME280;6847;48.830;9.116;2023-01-16T12:13:11;94844.81;;;8.19;52.42
13553;BME280;6847;48.830;9.116;2023-01-16T12:16:10;95080.16;;;9.74;51.53
13553;BME280;6847;48.830;9.116;2023-01-16T12:18:47;95005.53;;;9.30;51.94
13553;BME280;6847;48.830;9.116;2023-01-16T12:21:29;94855.72;;;8.35;52.11
13553;BME280;6847;48.830;9.116;2023-01-16T12:24:14;95080.56;;;10.00;51.60
13553;BME280;6847;48.830;9.116;2023-01-16T12:26:52;95020.88;;;9.53;51.63
13553;BME280;6847;48.830;9.116;2023-01-16T12:29:35;94996.59;;;9.41;52.10
13553;BME280;6847;48.830;9.116;2023-01-16T12:32:30;95036.28;;;9.77;52.03
13553;BME280;6847;48.830;9.116;2023-01-16T12:35:28;95069.53;;;10.06;52.18
13553;BME280;6847;48.830;9.116;2023-01-16T12:38:15;95003.84;;;9.77;52.04
13553;BME280;6847;48.830;9.116;2023-01-16T12:43:49;94789.78;;;8.57;51.69
13553;BME280;6847;48.830;9.116;2023-01-16T12:46:31;94786.66;;;8.54;51.70
13553;BME280;6847;48.830;9.116;2023-01-16T12:49:19;95013.41;;;10.15;52.18
13553;BME280;6847;48.830;9.116;2023-01-16T12:52:07;95009.13;;;10.14;52.40
13553;BME280;6847;48.830;9.116;2023-01-16T12:55:01;94866.53;;;9.51;51.60
13553;BME280;6847;48.830;9.116;2023-01-16T12:57:43;94919.81;;;9.94;51.84
13553;BME280;6847;48.830;9.116;2023-01-16T13:00:22;94816.34;;;9.22;51.58
13553;BME280;6847;48.830;9.116;2023-01-16T13:02:54;94768.19;;;8.81;52.13
13553;BME280;6847;48.830;9.116;2023-01-16T13:05:28;94981.19;;;10.22;52.01
13553;BME280;6847;48.830;9.116;2023-01-16T13:08:02;94961.13;;;10.23;51.78
13553;BME280;6847;48.830;9.116;2023-01-16T13:10:38;94914.75;;;9.93;51.64
13553;BME280;6847;48.830;9.116;2023-01-16T13:13:31;94859.59;;;9.66;52.21
13553;BME280;6847;48.830;9.116;2023-01-16T13:16:04;94766.69;;;9.11;51.58
13553;BME280;6847;48.830;9.116;2023-01-16T13:18:40;94955.09;;;10.57;51.72
13553;BME280;6847;48.830;9.116;2023-01-16T13:21:27;94952.19;;;10.66;51.67
13553;BME280;6847;48.830;9.116;2023-01-16T13:24:01;94896.78;;;10.44;51.68
13553;BME280;6847;48.830;9.116;2023-01-16T13:26:31;94678.81;;;9.10;51.61
13553;BME280;6847;48.830;9.116;2023-01-16T13:29:09;94900.88;;;10.69;51.33
13553;BME280;6847;48.830;9.116;2023-01-16T13:31:40;94849.31;;;10.62;50.90
13553;BME280;6847;48.830;9.116;2023-01-16T13:34:14;94771.72;;;10.16;51.13
13553;BME280;6847;48.830;9.116;2023-01-16T13:39:52;94892.78;;;11.59;49.82
13553;BME280;6847;48.830;9.116;2023-01-16T13:42:25;94926.81;;;12.14;50.39
13553;BME280;6847;48.830;9.116;2023-01-16T13:44:58;94924.72;;;12.27;50.06
13553;BME280;6847;48.830;9.116;2023-01-16T13:47:43;94916.44;;;12.19;49.72
13553;BME280;6847;48.830;9.116;2023-01-16T13:50:21;94664.78;;;10.34;50.07
13553;BME280;6847;48.830;9.116;2023-01-16T13:53:07;94918.75;;;11.98;49.95
13553;BME280;6847;48.830;9.116;2023-01-16T13:55:39;94820.66;;;11.31;49.50
13553;BME280;6847;48.830;9.116;2023-01-16T13:58:14;94924.13;;;11.95;49.87
13553;BME280;6847;48.830;9.116;2023-01-16T14:00:46;94922.59;;;11.97;49.33
13553;BME280;6847;48.830;9.116;2023-01-16T14:03:23;94916.94;;;11.83;49.97
13553;BME280;6847;48.830;9.116;2023-01-16T14:06:26;94920.88;;;11.70;49.22
13553;BME280;6847;48.830;9.116;2023-01-16T14:09:11;94899.84;;;11.44;49.29
13553;BME280;6847;48.830;9.116;2023-01-16T14:11:58;94814.59;;;10.64;49.56
13553;BME280;6847;48.830;9.116;2023-01-16T14:17:27;94893.47;;;10.66;49.63
13553;BME280;6847;48.830;9.116;2023-01-16T14:19:58;94931.50;;;10.73;49.62
13553;BME280;6847;48.830;9.116;2023-01-16T14:22:33;94835.69;;;10.12;49.61
13553;BME280;6847;48.830;9.116;2023-01-16T14:25:21;94613.16;;;8.63;49.27
13553;BME280;6847;48.830;9.116;2023-01-16T14:27:51;94796.09;;;9.72;50.06
13553;BME280;6847;48.830;9.116;2023-01-16T14:30:25;94789.56;;;9.73;49.95
13553;BME280;6847;48.830;9.116;2023-01-16T14:32:59;94791.66;;;9.64;50.20
13553;BME280;6847;48.830;9.116;2023-01-16T14:35:31;94737.94;;;9.31;50.51
13553;BME280;6847;48.830;9.116;2023-01-16T14:38:16;94641.13;;;8.30;50.42
13553;BME280;6847;48.830;9.116;2023-01-16T14:40:49;94782.28;;;9.46;50.90
13553;BME280;6847;48.830;9.116;2023-01-16T14:43:36;94668.13;;;8.86;49.83
13553;BME280;6847;48.830;9.116;2023-01-16T14:46:32;94742.03;;;9.41;50.56
13553;BME280;6847;48.830;9.116;2023-01-16T14:49:40;94831.75;;;9.93;51.05
13553;BME280;6847;48.830;9.116;2023-01-16T14:52:44;94816.78;;;9.96;50.72